| Date | Time | Temp. (oF) | Dew Point (oF) | Rel. Hum. (%) | Press. (in.) | Wind Dir. | Wind Speed (mph) | Hourly Rainfall (in.) |
|
|---|---|---|---|---|---|---|---|---|---|
| 1 | 10/15 | 00:00 | 67 | 61 | 82 | 30.07 | W | 0 | 0.00 |
| 2 | 10/14 | 23:00 | 69 | 60 | 75 | 30.07 | W | 0 | 0.00 |
| 3 | 10/14 | 22:00 | 68 | 60 | 78 | 30.07 | SW | 4 | 0.00 |
| 4 | 10/14 | 21:00 | 69 | 61 | 76 | 30.06 | SW | 2 | 0.00 |
| 5 | 10/14 | 20:00 | 71 | 61 | 71 | 30.06 | SW | 0 | 0.00 |
| 6 | 10/14 | 19:00 | 73 | 59 | 62 | 30.06 | SSW | 4 | 0.00 |
| 7 | 10/14 | 18:00 | 79 | 55 | 44 | 30.05 | SW | 0 | 0.00 |
| 8 | 10/14 | 17:00 | 81 | 54 | 41 | 30.05 | SSW | 4 | 0.00 |
| 9 | 10/14 | 16:00 | 80 | 51 | 37 | 30.09 | NW | 1 | 0.00 |
| 10 | 10/14 | 15:00 | 81 | 54 | 40 | 30.08 | WSW | 3 | 0.00 |
| 11 | 10/14 | 14:00 | 80 | 57 | 46 | 30.11 | WSW | 4 | 0.00 |
| 12 | 10/14 | 13:00 | 76 | 59 | 57 | 30.16 | SW | 0 | 0.00 |
| 13 | 10/14 | 12:00 | 73 | 61 | 68 | 30.18 | SW | 1 | 0.00 |
| 14 | 10/14 | 11:00 | 68 | 60 | 77 | 30.22 | S | 0 | 0.00 |
| 15 | 10/14 | 10:00 | 62 | 59 | 92 | 30.24 | SE | 1 | 0.00 |
| 16 | 10/14 | 09:00 | 55 | 54 | 100 | 30.25 | S | 1 | 0.00 |
| 17 | 10/14 | 08:00 | 51 | 50 | 100 | 30.25 | SW | 0 | 0.00 |
| 18 | 10/14 | 07:00 | 51 | 50 | 100 | 30.25 | NNW | 0 | 0.00 |
| 19 | 10/14 | 06:00 | 51 | 50 | 100 | 30.25 | NNW | 0 | 0.00 |
| 20 | 10/14 | 05:00 | 51 | 50 | 100 | 30.24 | NNW | 0 | 0.00 |
| 21 | 10/14 | 04:00 | 51 | 50 | 100 | 30.24 | WNW | 0 | 0.00 |
| 22 | 10/14 | 03:00 | 52 | 51 | 100 | 30.25 | WSW | 0 | 0.00 |
| 23 | 10/14 | 02:00 | 52 | 51 | 99 | 30.26 | WSW | 0 | 0.00 |
| 24 | 10/14 | 01:00 | 54 | 53 | 98 | 30.25 | WSW | 0 | 0.00 |